Aeroporto :
LOGIN :

Iscrizione | Disclaimer

   EN    FR    IT 

 










Sommario :    VFR   VFR Marginale   IFR   IFR Intensivo   IFR Molto Intensivo
Visibilità : 
Base nubi : 
>= 8 km
>= 3000ft
5 / 8 km
1000 / 3000 ft
1500m / 5 km
500 / 1000 ft
800 / 1500m
200 / 500 ft
< 800m
< 200 ft
Simboli :   Temporali  Nebbia  Neve Forte  Precipitazioni Forti  Vento > 20 kt
SIGMETs :   Varie  Temporali  Ghiacco  Turbolenza  Onda orograficha  Ceneri Vulcaniche







- Altitudine del aeroporto : 22 ft
- Codice IATA : TUN


DTTA - Tunis Carthage

ULTIMO METAR :
  • 161900Z 00000KT 9999 FEW026 10/03 Q1030 NOSIG

METARs OBSOLETI :
  • 161830Z VRB02KT 9999 FEW026 10/03 Q1030 NOSIG
  • 161800Z 03004KT 9999 FEW026 10/03 Q1030 NOSIG
  • 161730Z 02004KT 9999 FEW026 11/03 Q1030 NOSIG
  • 161630Z 03006KT 360V070 9999 FEW026 13/02 Q1029 NOSIG

TAF TAF DTTA
Valido dal 16 a 18 ore il 17 a 18 ore UTC


161700Z 1618/1718 04006KT 9999 FEW026
BECMG 1622/1624 20010KT
PROB30
TEMPO 1700/1706 3000 BR
BECMG 1706/1708 VRB03KT
BECMG 1712/1714 12010KT
Nessun NOTAM noto per questo aeroporto.



MetMap, La meteo Aeronautica in un colpo d'occhio ! - Copyright ORBIFLY Dicembre 2007 - Disclaimer

ORBIFLY MET'MAP TEAM :

Programmazione e sviluppo : Alexandra Zaïnal
Concezione e sviluppo : Baudouin d'Aumeries
Co-Programmazione e sviluppo : Marc-Olivier Méhu
Supporto tecnico e logistico : Manuel Goepfert
Aiuto per la traduzione : Arnaldo La Scala

Contatto : metmap@orbifly.com




FONTI E CREDITI :

   NOAA